Terminal Aerodrome Forecast
Issued by NWS Rapid City, SD

Home | Current Version | Previous Version | Graphics & Text | Print | Product List | Glossary On
Versions: 1 2 3 4 5 6 7 8 9 10 11 12 13 14 15 16 17 18
000
FTUS43 KUNR 252300
TAFRAP
TAF
KRAP 252320Z 2600/2624 32020G30KT P6SM BKN050
     FM260400 33028G40KT P6SM BKN040
     FM261000 33015G25KT P6SM BKN040
     FM261500 VRB05KT P6SM BKN040=

USA.gov is the U.S. government's official web portal to all federal, state and local government web resources and services.